createdAt,value
2022-10-26T00:01:25.638Z,99992.66
2022-10-26T00:03:57.164Z,99991.69
2022-10-26T00:06:27.970Z,99998.69
2022-10-26T00:08:57.417Z,99992.41
2022-10-26T00:11:26.108Z,99998.00
2022-10-26T00:13:54.695Z,100004.50
2022-10-26T00:16:25.512Z,99999.84
2022-10-26T00:18:55.118Z,99998.88
2022-10-26T00:21:23.538Z,99987.44
2022-10-26T00:23:51.806Z,99994.47
2022-10-26T00:26:20.238Z,99992.84
2022-10-26T00:28:49.038Z,99994.81
2022-10-26T00:31:17.890Z,100006.00
2022-10-26T00:33:46.336Z,100004.25
2022-10-26T00:36:17.051Z,100014.00
2022-10-26T00:38:50.396Z,100028.16
2022-10-26T00:41:20.503Z,100031.75
2022-10-26T00:43:49.808Z,100028.09
2022-10-26T00:46:21.666Z,100040.41
2022-10-26T00:48:53.681Z,100046.47
2022-10-26T00:51:26.995Z,100054.25
2022-10-26T00:53:56.511Z,100056.81
2022-10-26T00:56:25.572Z,100052.28
2022-10-26T00:58:56.362Z,100052.53
2022-10-26T01:01:25.291Z,100057.63
2022-10-26T01:03:54.091Z,100038.50
2022-10-26T01:06:23.979Z,100057.81
2022-10-26T01:08:52.288Z,100064.94
2022-10-26T01:11:20.975Z,100070.38
2022-10-26T01:13:52.024Z,100066.91
2022-10-26T01:16:45.837Z,100079.44
2022-10-26T01:19:39.535Z,100086.63
2022-10-26T01:22:15.733Z,100086.47
2022-10-26T01:24:59.690Z,100081.19
2022-10-26T01:27:33.474Z,100080.94
2022-10-26T01:30:28.881Z,100088.03
2022-10-26T01:33:17.067Z,100090.09
2022-10-26T01:35:54.156Z,100100.91
2022-10-26T01:38:28.167Z,100105.13
2022-10-26T01:41:04.429Z,100102.34
2022-10-26T01:43:38.339Z,100100.84
2022-10-26T01:46:11.637Z,100101.91
2022-10-26T01:48:42.809Z,100107.94
2022-10-26T01:51:15.806Z,100102.66
2022-10-26T01:53:47.148Z,100091.84
2022-10-26T01:56:21.103Z,100094.44
2022-10-26T01:59:15.063Z,100088.31
2022-10-26T02:02:15.928Z,100090.75
2022-10-26T02:04:54.696Z,100084.47
2022-10-26T02:07:32.264Z,100077.41
2022-10-26T02:10:07.905Z,100089.63
2022-10-26T02:12:42.946Z,100095.06
2022-10-26T02:15:21.500Z,100091.59
2022-10-26T02:17:53.733Z,100091.72
2022-10-26T02:20:27.124Z,100090.88
2022-10-26T02:22:57.809Z,100098.94
2022-10-26T02:25:30.111Z,100104.22
2022-10-26T02:28:01.455Z,100092.63
2022-10-26T02:30:30.395Z,100105.72
2022-10-26T02:33:01.130Z,100098.63
2022-10-26T02:35:32.751Z,100106.59
2022-10-26T02:38:04.386Z,100100.25
2022-10-26T02:40:34.287Z,100100.13
2022-10-26T02:43:07.812Z,100105.53
2022-10-26T02:45:42.834Z,100094.91
2022-10-26T02:48:12.874Z,100096.66
2022-10-26T02:50:51.423Z,100101.13
2022-10-26T02:53:27.311Z,100114.63
2022-10-26T02:55:55.756Z,100105.72
2022-10-26T02:58:28.118Z,100112.84
2022-10-26T03:00:56.946Z,100102.16
2022-10-26T03:03:26.859Z,100117.06
2022-10-26T03:05:55.102Z,100107.38
2022-10-26T03:08:23.490Z,100103.09
2022-10-26T03:10:51.539Z,100105.53
2022-10-26T03:13:19.716Z,100100.50
2022-10-26T03:15:48.002Z,100126.13
2022-10-26T03:18:16.213Z,100120.00
2022-10-26T03:20:47.070Z,100126.06
2022-10-26T03:23:15.359Z,100128.69
2022-10-26T03:25:43.397Z,100125.03
2022-10-26T03:28:11.514Z,100127.69
2022-10-26T03:30:40.026Z,100133.97
2022-10-26T03:33:08.545Z,100134.13
2022-10-26T03:35:36.727Z,100141.44
2022-10-26T03:38:06.616Z,100143.09
2022-10-26T03:40:36.026Z,100134.13
2022-10-26T03:43:04.228Z,100146.72
2022-10-26T03:45:32.574Z,100155.38
2022-10-26T03:48:00.742Z,100155.50
2022-10-26T03:50:29.425Z,100153.59
2022-10-26T03:52:57.834Z,100153.38
2022-10-26T03:55:27.362Z,100154.31
2022-10-26T03:57:55.444Z,100164.00
2022-10-26T04:00:24.106Z,100145.56
2022-10-26T04:02:56.933Z,100180.09
2022-10-26T04:05:25.812Z,100166.06
2022-10-26T04:07:55.387Z,100171.47
2022-10-26T04:10:24.125Z,100180.44
2022-10-26T04:12:54.941Z,100180.41
2022-10-26T04:15:23.522Z,100173.13
2022-10-26T04:17:57.759Z,100180.22
2022-10-26T04:20:26.480Z,100178.34
2022-10-26T04:23:02.076Z,100177.47
2022-10-26T04:25:33.078Z,100187.31
2022-10-26T04:28:05.411Z,100187.25
2022-10-26T04:30:34.236Z,100181.09
2022-10-26T04:33:02.597Z,100192.53
2022-10-26T04:35:31.185Z,100192.66
2022-10-26T04:38:00.276Z,100197.13
2022-10-26T04:40:28.754Z,100194.50
2022-10-26T04:42:57.015Z,100194.34
2022-10-26T04:45:28.264Z,100192.53
2022-10-26T04:48:04.673Z,100190.72
2022-10-26T04:50:33.403Z,100186.25
2022-10-26T04:53:01.893Z,100199.53
2022-10-26T04:55:30.844Z,100196.25
2022-10-26T04:58:01.208Z,100196.13
2022-10-26T05:00:33.225Z,100185.56
2022-10-26T05:03:02.042Z,100191.72
2022-10-26T05:05:31.779Z,100174.88
2022-10-26T05:08:00.099Z,100183.41
2022-10-26T05:10:28.496Z,100183.31
2022-10-26T05:12:58.472Z,100181.59
2022-10-26T05:15:27.490Z,100185.22
2022-10-26T05:18:01.548Z,100187.06
2022-10-26T05:20:31.979Z,100191.28
2022-10-26T05:23:01.896Z,100190.41
2022-10-26T05:25:33.109Z,100197.44
2022-10-26T05:28:02.766Z,100197.38
2022-10-26T05:30:31.866Z,100190.28
2022-10-26T05:33:03.558Z,100192.09
2022-10-26T05:35:33.026Z,100196.31
2022-10-26T05:38:02.195Z,100188.53
2022-10-26T05:40:30.509Z,100190.03
2022-10-26T05:43:02.319Z,100200.75
2022-10-26T05:45:30.914Z,100204.25
2022-10-26T05:48:02.578Z,100206.84
2022-10-26T05:50:32.881Z,100205.09
2022-10-26T05:53:01.615Z,100219.94
2022-10-26T05:55:30.766Z,100217.97
2022-10-26T05:58:00.708Z,100214.50
2022-10-26T06:00:30.800Z,100223.25
2022-10-26T06:03:10.282Z,100221.72
2022-10-26T06:05:53.735Z,100229.69
2022-10-26T06:08:23.354Z,100229.63
2022-10-26T06:10:52.603Z,100230.50
2022-10-26T06:13:21.715Z,100231.44
2022-10-26T06:16:02.911Z,100233.97
2022-10-26T06:18:44.189Z,100231.53
2022-10-26T06:21:27.751Z,100234.22
2022-10-26T06:24:04.632Z,100237.75
2022-10-26T06:26:41.219Z,100238.56
2022-10-26T06:29:23.308Z,100249.25
2022-10-26T06:31:51.761Z,100243.91
2022-10-26T06:34:29.893Z,100246.53
2022-10-26T06:37:01.929Z,100250.06
2022-10-26T06:39:33.716Z,100247.28
2022-10-26T06:42:02.803Z,100253.25
2022-10-26T06:44:31.623Z,100255.13
2022-10-26T06:47:07.702Z,100256.88
2022-10-26T06:49:41.437Z,100266.63
2022-10-26T06:52:17.636Z,100264.09
2022-10-26T06:54:49.783Z,100269.41
2022-10-26T06:57:20.206Z,100269.25
2022-10-26T06:59:51.909Z,100264.19
2022-10-26T07:02:20.977Z,100277.31
2022-10-26T07:04:49.532Z,100278.16
2022-10-26T07:07:21.202Z,100282.53
2022-10-26T07:09:50.257Z,100286.72
2022-10-26T07:12:18.480Z,100283.94
2022-10-26T07:14:46.753Z,100291.19
2022-10-26T07:17:15.288Z,100278.09
2022-10-26T07:19:44.809Z,100304.38
2022-10-26T07:22:13.200Z,100296.41
2022-10-26T07:24:43.308Z,100313.13
2022-10-26T07:27:11.573Z,100311.19
2022-10-26T07:29:39.923Z,100312.06
2022-10-26T07:32:08.697Z,100316.41
2022-10-26T07:34:36.760Z,100312.06
2022-10-26T07:37:05.050Z,100318.38
2022-10-26T07:39:34.030Z,100320.19
2022-10-26T07:42:03.602Z,100328.81
2022-10-26T07:44:31.712Z,100329.63
2022-10-26T07:47:01.001Z,100325.25
2022-10-26T07:49:29.073Z,100326.88
2022-10-26T07:51:57.359Z,100325.31
2022-10-26T07:54:25.837Z,100337.56
2022-10-26T07:56:54.178Z,100342.84
2022-10-26T07:59:23.745Z,100325.16
2022-10-26T08:01:52.219Z,100335.81
2022-10-26T08:04:20.374Z,100342.91
2022-10-26T08:06:48.903Z,100347.19
2022-10-26T08:09:17.370Z,100344.50
2022-10-26T08:11:45.443Z,100337.34
2022-10-26T08:14:13.583Z,100349.78
2022-10-26T08:16:43.183Z,100354.19
2022-10-26T08:19:14.521Z,100360.44
2022-10-26T08:21:42.814Z,100355.22
2022-10-26T08:24:11.593Z,100365.66
2022-10-26T08:26:39.820Z,100362.09
2022-10-26T08:29:09.193Z,100367.66
2022-10-26T08:31:37.518Z,100364.97
2022-10-26T08:34:07.391Z,100367.53
2022-10-26T08:36:35.784Z,100371.16
2022-10-26T08:39:06.840Z,100378.19
2022-10-26T08:41:42.828Z,100376.84
2022-10-26T08:44:26.805Z,100382.16
2022-10-26T08:46:59.803Z,100382.94
2022-10-26T08:49:34.142Z,100396.19
2022-10-26T08:52:04.156Z,100382.09
2022-10-26T08:54:39.946Z,100396.47
2022-10-26T08:57:16.536Z,100396.31
2022-10-26T08:59:50.677Z,100390.97
2022-10-26T09:02:20.178Z,100389.09
2022-10-26T09:04:49.915Z,100385.56
2022-10-26T09:07:38.741Z,100383.69
2022-10-26T09:10:23.307Z,100393.44
2022-10-26T09:12:59.072Z,100388.91
2022-10-26T09:15:40.561Z,100388.75
2022-10-26T09:18:22.355Z,100394.78
2022-10-26T09:21:01.413Z,100397.44
2022-10-26T09:23:51.943Z,100394.75
2022-10-26T09:26:30.387Z,100408.38
2022-10-26T09:29:03.001Z,100416.88
2022-10-26T09:31:33.953Z,100415.75
2022-10-26T09:34:07.208Z,100403.38
2022-10-26T09:36:37.194Z,100407.69
2022-10-26T09:39:15.748Z,100412.91
2022-10-26T09:41:47.715Z,100414.50
2022-10-26T09:44:24.629Z,100423.66
2022-10-26T09:46:58.148Z,100419.13
2022-10-26T09:49:34.435Z,100423.66
2022-10-26T09:52:06.109Z,100428.13
2022-10-26T09:54:34.539Z,100437.66
2022-10-26T09:57:04.178Z,100450.81
2022-10-26T09:59:39.992Z,100449.94
2022-10-26T10:02:34.912Z,100450.81
2022-10-26T10:05:03.941Z,100462.03
2022-10-26T10:07:36.594Z,100463.81
2022-10-26T10:10:10.503Z,100448.63
2022-10-26T10:12:38.830Z,100456.59
2022-10-26T10:15:18.560Z,100446.34
2022-10-26T10:17:52.971Z,100469.44
2022-10-26T10:20:23.634Z,100479.13
2022-10-26T10:23:01.558Z,100493.00
2022-10-26T10:25:39.834Z,100493.84
2022-10-26T10:28:22.709Z,100490.38
2022-10-26T10:30:55.898Z,100502.59
2022-10-26T10:33:24.633Z,100505.25
2022-10-26T10:35:53.918Z,100497.25
2022-10-26T10:38:23.666Z,100506.09
2022-10-26T10:40:54.503Z,100503.31
2022-10-26T10:43:23.785Z,100492.75
2022-10-26T10:45:57.195Z,100495.50
2022-10-26T10:48:29.459Z,100502.56
2022-10-26T10:51:00.628Z,100504.31
2022-10-26T10:53:36.282Z,100502.38
2022-10-26T10:56:19.742Z,100505.91
2022-10-26T10:59:00.888Z,100511.06
2022-10-26T11:01:33.423Z,100518.16
2022-10-26T11:04:18.151Z,100516.53
2022-10-26T11:06:49.981Z,100517.31
2022-10-26T11:09:28.070Z,100511.19
2022-10-26T11:12:00.553Z,100505.81
2022-10-26T11:14:34.430Z,100516.47
2022-10-26T11:17:08.026Z,100529.66
2022-10-26T11:19:41.705Z,100531.44
2022-10-26T11:22:15.647Z,100534.91
2022-10-26T11:24:48.593Z,100526.91
2022-10-26T11:27:19.220Z,100529.00
2022-10-26T11:29:56.373Z,100551.59
2022-10-26T11:32:31.603Z,100548.78
2022-10-26T11:35:06.236Z,100561.41
2022-10-26T11:40:35.526Z,100576.41
2022-10-26T11:43:16.126Z,100574.44
2022-10-26T11:45:47.382Z,100563.81
2022-10-26T11:48:21.644Z,100562.06
2022-10-26T11:50:53.581Z,100568.94
2022-10-26T11:53:25.637Z,100566.28
2022-10-26T11:55:56.549Z,100556.69
2022-10-26T11:58:27.355Z,100569.00
2022-10-26T12:00:59.227Z,100558.41
2022-10-26T12:03:30.851Z,100559.34
2022-10-26T12:05:59.312Z,100565.34
2022-10-26T12:08:32.404Z,100567.00
2022-10-26T12:11:11.316Z,100567.00
2022-10-26T12:13:44.193Z,100566.34
2022-10-26T12:16:22.101Z,100565.34
2022-10-26T12:18:56.546Z,100577.41
2022-10-26T12:21:29.017Z,100563.94
2022-10-26T12:23:59.913Z,100573.75
2022-10-26T12:26:57.388Z,100581.94
2022-10-26T12:29:40.323Z,100586.06
2022-10-26T12:32:51.116Z,100587.84
2022-10-26T12:35:46.923Z,100582.81
2022-10-26T12:38:53.863Z,100583.72
2022-10-26T12:41:26.941Z,100586.41
2022-10-26T12:44:06.234Z,100582.88
2022-10-26T12:46:45.606Z,100583.66
2022-10-26T12:49:50.302Z,100576.66
2022-10-26T12:52:50.996Z,100574.72
2022-10-26T12:55:57.237Z,100574.59
2022-10-26T12:58:48.246Z,100570.81
2022-10-26T13:01:41.851Z,100579.94
2022-10-26T13:04:38.805Z,100578.97
2022-10-26T13:07:23.623Z,100581.38
2022-10-26T13:10:01.865Z,100583.91
2022-10-26T13:12:40.127Z,100585.00
2022-10-26T13:15:23.308Z,100578.84
2022-10-26T13:18:01.235Z,100576.38
2022-10-26T13:20:32.228Z,100576.22
2022-10-26T13:25:32.020Z,100564.75
2022-10-26T13:28:05.148Z,100568.31
2022-10-26T13:30:47.816Z,100573.59
2022-10-26T13:33:24.266Z,100575.47
2022-10-26T13:35:55.754Z,100560.72
2022-10-26T13:38:26.703Z,100570.25
2022-10-26T13:41:14.071Z,100573.91
2022-10-26T13:43:42.986Z,100572.13
2022-10-26T13:46:25.331Z,100566.94
2022-10-26T13:49:01.333Z,100572.22
2022-10-26T13:51:40.655Z,100575.72
2022-10-26T13:54:21.171Z,100579.06
2022-10-26T13:57:02.779Z,100573.81
2022-10-26T13:59:34.549Z,100571.00
2022-10-26T14:02:17.743Z,100569.41
2022-10-26T14:04:54.941Z,100579.25
2022-10-26T14:07:26.681Z,100584.47
2022-10-26T14:09:57.278Z,100577.38
2022-10-26T14:12:28.574Z,100570.19
2022-10-26T14:15:17.602Z,100570.13
2022-10-26T14:17:52.071Z,100585.78
2022-10-26T14:20:24.831Z,100576.13
2022-10-26T14:22:53.825Z,100585.06
2022-10-26T14:25:35.809Z,100594.94
2022-10-26T14:28:27.364Z,100590.66
2022-10-26T14:30:57.499Z,100584.41
2022-10-26T14:33:30.415Z,100588.13
2022-10-26T14:36:00.915Z,100581.13
2022-10-26T14:38:35.888Z,100583.00
2022-10-26T14:41:04.486Z,100567.34
2022-10-26T14:43:33.252Z,100566.56
2022-10-26T14:46:01.677Z,100567.41
2022-10-26T14:48:32.672Z,100574.44
2022-10-26T14:51:12.805Z,100577.06
2022-10-26T14:53:42.736Z,100567.53
2022-10-26T14:56:23.359Z,100572.88
2022-10-26T14:58:52.875Z,100558.81
2022-10-26T15:01:33.239Z,100560.47
2022-10-26T15:04:06.319Z,100554.31
2022-10-26T15:06:45.694Z,100563.19
2022-10-26T15:09:34.153Z,100557.00
2022-10-26T15:12:04.343Z,100542.75
2022-10-26T15:14:33.117Z,100543.66
2022-10-26T15:17:02.274Z,100546.53
2022-10-26T15:19:31.096Z,100544.09
2022-10-26T15:22:00.830Z,100550.38
2022-10-26T15:24:37.516Z,100532.75
2022-10-26T15:27:16.235Z,100513.56
2022-10-26T15:29:46.750Z,100520.56
2022-10-26T15:32:34.001Z,100536.50
2022-10-26T15:35:25.786Z,100541.78
2022-10-26T15:37:56.876Z,100528.59
2022-10-26T15:40:27.110Z,100545.13
2022-10-26T15:42:57.022Z,100543.34
2022-10-26T15:45:27.666Z,100546.19
2022-10-26T15:47:59.912Z,100549.81
2022-10-26T15:50:30.309Z,100540.03
2022-10-26T15:53:02.525Z,100524.25
2022-10-26T15:55:32.308Z,100521.63
2022-10-26T15:58:00.550Z,100510.16
2022-10-26T16:00:28.624Z,100494.38
2022-10-26T16:03:00.243Z,100511.81
2022-10-26T16:05:28.697Z,100503.88
2022-10-26T16:07:56.948Z,100497.25
2022-10-26T16:10:27.312Z,100505.06
2022-10-26T16:12:56.011Z,100505.13
2022-10-26T16:15:25.878Z,100505.03
2022-10-26T16:17:54.555Z,100510.38
2022-10-26T16:20:24.762Z,100488.59
2022-10-26T16:22:54.015Z,100511.28
2022-10-26T16:25:25.142Z,100509.53
2022-10-26T16:27:56.493Z,100514.91
2022-10-26T16:30:29.468Z,100518.59
2022-10-26T16:32:59.253Z,100503.53
2022-10-26T16:35:27.450Z,100500.00
2022-10-26T16:37:55.699Z,100477.28
2022-10-26T16:40:24.489Z,100498.06
2022-10-26T16:42:55.536Z,100482.44
2022-10-26T16:45:23.801Z,100485.75
2022-10-26T16:47:55.364Z,100489.16
2022-10-26T16:50:24.344Z,100494.44
2022-10-26T16:52:52.551Z,100495.44
2022-10-26T16:55:24.702Z,100498.13
2022-10-26T16:57:54.200Z,100503.53
2022-10-26T17:00:22.801Z,100499.94
2022-10-26T17:02:51.121Z,100508.69
2022-10-26T17:05:19.590Z,100507.00
2022-10-26T17:07:49.091Z,100495.00
2022-10-26T17:10:17.827Z,100494.28
2022-10-26T17:12:46.127Z,100504.81
2022-10-26T17:15:18.924Z,100499.53
2022-10-26T17:17:48.485Z,100492.53
2022-10-26T17:20:17.223Z,100489.72
2022-10-26T17:22:45.523Z,100498.63
2022-10-26T17:25:14.166Z,100498.78
2022-10-26T17:27:46.363Z,100497.75
2022-10-26T17:30:17.113Z,100502.22
2022-10-26T17:32:45.505Z,100516.34
2022-10-26T17:35:16.916Z,100509.31
2022-10-26T17:37:45.449Z,100522.41
2022-10-26T17:40:14.031Z,100526.69
2022-10-26T17:42:42.549Z,100522.38
2022-10-26T17:45:11.956Z,100504.06
2022-10-26T17:47:42.243Z,100512.00
2022-10-26T17:50:12.569Z,100506.50
2022-10-26T17:52:41.090Z,100503.00
2022-10-26T17:55:17.056Z,100495.91
2022-10-26T17:57:45.097Z,100501.19
2022-10-26T18:00:14.483Z,100508.19
2022-10-26T18:02:44.552Z,100512.53
2022-10-26T18:05:13.134Z,100506.38
2022-10-26T18:07:52.399Z,100507.28
2022-10-26T18:10:37.490Z,100508.09
2022-10-26T18:13:08.206Z,100507.25
2022-10-26T18:15:37.482Z,100506.41
2022-10-26T18:18:08.057Z,100514.28
2022-10-26T18:20:37.389Z,100508.97
2022-10-26T18:23:05.777Z,100519.53
2022-10-26T18:25:36.443Z,100500.16
2022-10-26T18:28:06.954Z,100513.31
2022-10-26T18:30:35.315Z,100521.19
2022-10-26T18:33:03.651Z,100519.38
2022-10-26T18:35:33.535Z,100512.44
2022-10-26T18:38:01.684Z,100517.53
2022-10-26T18:40:30.435Z,100521.13
2022-10-26T18:42:58.575Z,100524.66
2022-10-26T18:45:26.931Z,100512.38
2022-10-26T18:47:56.496Z,100518.44
2022-10-26T18:50:24.563Z,100519.34
2022-10-26T18:52:55.664Z,100511.34
2022-10-26T18:55:24.432Z,100515.66
2022-10-26T18:57:52.821Z,100512.13
2022-10-26T19:00:21.895Z,100505.06
2022-10-26T19:02:52.466Z,100515.53
2022-10-26T19:05:21.222Z,100526.22
2022-10-26T19:07:49.688Z,100520.06
2022-10-26T19:10:19.545Z,100517.34
2022-10-26T19:12:47.796Z,100510.31
2022-10-26T19:15:16.131Z,100506.84
2022-10-26T19:17:44.459Z,100512.13
2022-10-26T19:20:13.533Z,100522.63
2022-10-26T19:22:41.789Z,100526.22
2022-10-26T19:25:13.948Z,100534.25
2022-10-26T19:27:46.412Z,100536.94
2022-10-26T19:30:15.565Z,100538.66
2022-10-26T19:32:43.796Z,100542.09
2022-10-26T19:35:12.035Z,100547.31
2022-10-26T19:37:40.985Z,100528.09
2022-10-26T19:40:11.204Z,100527.22
2022-10-26T19:42:42.132Z,100520.94
2022-10-26T19:45:12.375Z,100520.94
2022-10-26T19:47:40.969Z,100519.22
2022-10-26T19:50:09.986Z,100529.63
2022-10-26T19:52:38.666Z,100529.53
2022-10-26T19:55:07.492Z,100528.72
2022-10-26T19:57:35.724Z,100541.97
2022-10-26T20:00:04.318Z,100521.63
2022-10-26T20:02:33.792Z,100518.97
2022-10-26T20:05:02.121Z,100521.78
2022-10-26T20:07:30.552Z,100531.31
2022-10-26T20:09:58.622Z,100522.50
2022-10-26T20:12:26.749Z,100517.31
2022-10-26T20:14:55.028Z,100534.72
2022-10-26T20:17:27.548Z,100516.31
2022-10-26T20:19:58.499Z,100527.78
2022-10-26T20:22:26.607Z,100531.19
2022-10-26T20:24:54.882Z,100524.16
2022-10-26T20:27:24.052Z,100527.56
2022-10-26T20:29:52.183Z,100527.56
2022-10-26T20:32:20.338Z,100532.88
2022-10-26T20:34:50.082Z,100531.97
2022-10-26T20:37:20.204Z,100529.34
2022-10-26T20:39:48.956Z,100518.69
2022-10-26T20:42:24.387Z,100518.75
2022-10-26T20:44:58.931Z,100518.81
2022-10-26T20:47:28.154Z,100505.53
2022-10-26T20:49:56.891Z,100520.50
2022-10-26T20:52:37.568Z,100503.09
2022-10-26T20:55:12.982Z,100517.88
2022-10-26T20:57:46.608Z,100517.16
2022-10-26T21:00:16.020Z,100518.75
2022-10-26T21:02:44.349Z,100522.22
2022-10-26T21:05:12.691Z,100505.63
2022-10-26T21:07:42.348Z,100510.00
2022-10-26T21:10:11.122Z,100500.31
2022-10-26T21:12:40.486Z,100508.16
2022-10-26T21:15:10.154Z,100506.41
2022-10-26T21:17:38.712Z,100493.19
2022-10-26T21:20:07.828Z,100473.91
2022-10-26T21:22:36.178Z,100481.84
2022-10-26T21:25:06.339Z,100481.72
2022-10-26T21:27:34.975Z,100478.25
2022-10-26T21:30:03.109Z,100485.13
2022-10-26T21:32:31.670Z,100493.13
2022-10-26T21:34:59.978Z,100475.72
2022-10-26T21:37:28.565Z,100500.28
2022-10-26T21:39:56.732Z,100486.97
2022-10-26T21:42:26.469Z,100494.88
2022-10-26T21:44:54.564Z,100492.19
2022-10-26T21:47:23.042Z,100493.91
2022-10-26T21:49:51.165Z,100488.63
2022-10-26T21:52:19.334Z,100480.63
2022-10-26T21:54:47.626Z,100446.34
2022-10-26T21:57:17.114Z,100448.81
2022-10-26T21:59:46.619Z,100451.53
2022-10-26T22:02:14.959Z,100444.34
2022-10-26T22:04:43.093Z,100454.97
2022-10-26T22:07:11.499Z,100453.28
2022-10-26T22:10:00.473Z,100452.41
2022-10-26T22:12:30.432Z,100441.16
2022-10-26T22:15:00.372Z,100448.06
2022-10-26T22:17:28.524Z,100442.69
2022-10-26T22:19:56.798Z,100438.34
2022-10-26T22:22:25.126Z,100429.41
2022-10-26T22:24:53.126Z,100423.41
2022-10-26T22:27:21.610Z,100414.56
2022-10-26T22:29:49.951Z,100418.03
2022-10-26T22:32:19.443Z,100415.44
2022-10-26T22:34:50.625Z,100412.75
2022-10-26T22:37:19.103Z,100419.72
2022-10-26T22:42:16.260Z,100409.06
2022-10-26T22:44:44.619Z,100406.44
2022-10-26T22:47:13.006Z,100405.56
2022-10-26T22:49:45.870Z,100417.97
2022-10-26T22:52:14.100Z,100413.50
2022-10-26T22:54:42.260Z,100405.50
2022-10-26T22:57:10.613Z,100412.31
2022-10-26T22:59:38.717Z,100416.84
2022-10-26T23:02:06.920Z,100410.50
2022-10-26T23:04:35.402Z,100421.25
2022-10-26T23:07:04.932Z,100421.31
2022-10-26T23:09:33.112Z,100426.53
2022-10-26T23:12:01.521Z,100430.88
2022-10-26T23:14:29.914Z,100429.88
2022-10-26T23:16:57.990Z,100433.53
2022-10-26T23:19:26.462Z,100433.72
2022-10-26T23:21:54.579Z,100430.13
2022-10-26T23:24:23.984Z,100426.66
2022-10-26T23:26:52.441Z,100417.72
2022-10-26T23:29:20.477Z,100422.19
2022-10-26T23:31:48.898Z,100418.84
2022-10-26T23:34:17.181Z,100418.72
2022-10-26T23:36:45.262Z,100421.38
2022-10-26T23:39:13.485Z,100432.19
2022-10-26T23:41:43.237Z,100416.50
2022-10-26T23:44:11.657Z,100415.44
2022-10-26T23:46:40.134Z,100418.13
2022-10-26T23:49:08.647Z,100411.09
2022-10-26T23:51:36.947Z,100409.28
2022-10-26T23:54:05.269Z,100410.97
2022-10-26T23:56:33.632Z,100409.28
2022-10-26T23:59:07.412Z,100396.16
